createdAt,value
2023-04-22T00:02:23.373Z,10.50
2023-04-22T00:04:53.003Z,10.40
2023-04-22T00:07:20.013Z,10.40
2023-04-22T00:09:46.846Z,10.40
2023-04-22T00:12:15.846Z,10.40
2023-04-22T00:14:42.694Z,10.30
2023-04-22T00:17:09.568Z,10.30
2023-04-22T00:19:37.463Z,10.20
2023-04-22T00:22:04.703Z,10.20
2023-04-22T00:24:33.927Z,10.20
2023-04-22T00:27:02.994Z,10.20
2023-04-22T00:29:29.808Z,10.20
2023-04-22T00:31:59.162Z,10.20
2023-04-22T00:34:25.964Z,10.20
2023-04-22T00:36:55.031Z,10.10
2023-04-22T00:39:21.865Z,10.10
2023-04-22T00:41:49.562Z,10.10
2023-04-22T00:44:18.486Z,10.00
2023-04-22T00:46:45.786Z,10.10
2023-04-22T00:49:15.095Z,10.10
2023-04-22T00:51:43.155Z,10.00
2023-04-22T00:54:12.610Z,10.00
2023-04-22T00:56:39.712Z,10.00
2023-04-22T00:59:07.208Z,9.90
2023-04-22T01:01:34.498Z,9.90
2023-04-22T01:04:01.930Z,9.90
2023-04-22T01:06:34.391Z,9.80
2023-04-22T01:09:01.677Z,9.80
2023-04-22T01:11:28.644Z,9.70
2023-04-22T01:13:57.898Z,9.70
2023-04-22T01:16:29.055Z,9.70
2023-04-22T01:18:58.186Z,9.70
2023-04-22T01:21:26.519Z,9.60
2023-04-22T01:23:55.846Z,9.60
2023-04-22T01:26:23.156Z,9.60
2023-04-22T01:28:50.378Z,9.60
2023-04-22T01:31:19.629Z,9.60
2023-04-22T01:33:46.661Z,9.60
2023-04-22T01:36:16.614Z,9.50
2023-04-22T01:38:43.568Z,9.50
2023-04-22T01:41:10.494Z,9.50
2023-04-22T01:43:37.708Z,9.50
2023-04-22T01:46:05.002Z,9.50
2023-04-22T01:48:34.921Z,9.50
2023-04-22T01:51:02.257Z,9.40
2023-04-22T01:53:33.374Z,9.30
2023-04-22T01:56:00.267Z,9.30
2023-04-22T01:58:29.582Z,9.20
2023-04-22T02:00:57.204Z,9.20
2023-04-22T02:03:24.244Z,9.20
2023-04-22T02:05:51.160Z,9.10
2023-04-22T02:08:18.577Z,9.10
2023-04-22T02:10:45.430Z,9.00
2023-04-22T02:13:12.375Z,9.00
2023-04-22T02:15:40.520Z,9.00
2023-04-22T02:18:12.309Z,8.90
2023-04-22T02:20:42.596Z,8.90
2023-04-22T02:23:09.471Z,8.90
2023-04-22T02:25:36.838Z,8.90
2023-04-22T02:28:03.849Z,8.90
2023-04-22T02:30:31.239Z,8.90
2023-04-22T02:32:58.050Z,8.90
2023-04-22T02:35:25.288Z,8.80
2023-04-22T02:37:54.401Z,8.80
2023-04-22T02:40:23.553Z,8.80
2023-04-22T02:42:52.754Z,8.80
2023-04-22T02:45:20.948Z,8.70
2023-04-22T02:47:47.770Z,8.60
2023-04-22T02:50:16.712Z,8.50
2023-04-22T02:52:43.506Z,8.40
2023-04-22T02:55:10.397Z,8.40
2023-04-22T02:57:37.285Z,8.30
2023-04-22T03:00:04.870Z,8.30
2023-04-22T03:02:31.985Z,8.20
2023-04-22T03:05:06.012Z,8.10
2023-04-22T03:07:35.142Z,8.10
2023-04-22T03:10:02.599Z,8.10
2023-04-22T03:12:29.473Z,8.00
2023-04-22T03:14:56.848Z,8.10
2023-04-22T03:17:28.127Z,8.10
2023-04-22T03:19:59.433Z,8.20
2023-04-22T03:22:26.375Z,8.20
2023-04-22T03:24:56.848Z,8.20
2023-04-22T03:27:25.332Z,8.20
2023-04-22T03:29:52.252Z,8.20
2023-04-22T03:32:19.813Z,8.20
2023-04-22T03:34:50.097Z,8.20
2023-04-22T03:37:19.320Z,8.20
2023-04-22T03:39:48.640Z,8.20
2023-04-22T03:42:18.074Z,8.30
2023-04-22T03:44:46.119Z,8.30
2023-04-22T03:47:16.623Z,8.30
2023-04-22T03:49:50.206Z,8.20
2023-04-22T03:52:17.111Z,8.20
2023-04-22T03:54:50.735Z,8.20
2023-04-22T03:57:17.869Z,8.20
2023-04-22T03:59:44.996Z,8.20
2023-04-22T04:02:12.571Z,8.20
2023-04-22T04:04:39.727Z,8.10
2023-04-22T04:07:10.231Z,8.10
2023-04-22T04:09:37.277Z,8.10
2023-04-22T04:12:04.316Z,8.00
2023-04-22T04:14:36.262Z,8.10
2023-04-22T04:17:04.698Z,8.10
2023-04-22T04:19:37.092Z,8.00
2023-04-22T04:22:06.913Z,8.00
2023-04-22T04:24:42.041Z,8.00
2023-04-22T04:27:15.524Z,8.00
2023-04-22T04:29:49.700Z,8.10
2023-04-22T04:32:25.657Z,8.10
2023-04-22T04:34:53.204Z,8.10
2023-04-22T04:37:22.922Z,8.20
2023-04-22T04:40:02.358Z,8.20
2023-04-22T04:42:42.365Z,8.30
2023-04-22T04:45:16.942Z,8.40
2023-04-22T04:47:45.197Z,8.40
2023-04-22T04:50:22.772Z,8.50
2023-04-22T04:52:50.265Z,8.50
2023-04-22T04:55:22.130Z,8.50
2023-04-22T04:57:49.861Z,8.50
2023-04-22T05:00:17.361Z,8.60
2023-04-22T05:02:45.902Z,8.60
2023-04-22T05:05:14.867Z,8.70
2023-04-22T05:07:43.460Z,8.70
2023-04-22T05:10:14.501Z,8.70
2023-04-22T05:12:41.926Z,8.70
2023-04-22T05:15:14.891Z,8.80
2023-04-22T05:17:44.245Z,8.90
2023-04-22T05:20:11.465Z,8.90
2023-04-22T05:22:43.232Z,8.90
2023-04-22T05:25:10.720Z,8.90
2023-04-22T05:27:42.241Z,9.00
2023-04-22T05:30:12.712Z,9.00
2023-04-22T05:32:42.569Z,9.00
2023-04-22T05:35:10.107Z,9.00
2023-04-22T05:37:42.230Z,9.00
2023-04-22T05:40:11.724Z,9.00
2023-04-22T05:42:39.054Z,9.10
2023-04-22T05:45:06.481Z,9.10
2023-04-22T05:47:33.349Z,9.20
2023-04-22T05:50:03.813Z,9.20
2023-04-22T05:52:47.953Z,9.30
2023-04-22T05:55:16.969Z,9.30
2023-04-22T05:57:45.040Z,9.50
2023-04-22T06:00:37.767Z,9.60
2023-04-22T06:03:18.443Z,9.80
2023-04-22T06:05:48.291Z,9.90
2023-04-22T06:08:17.806Z,9.90
2023-04-22T06:10:47.466Z,10.20
2023-04-22T06:13:14.310Z,10.40
2023-04-22T06:15:43.609Z,10.60
2023-04-22T06:18:10.657Z,10.70
2023-04-22T06:20:39.987Z,10.90
2023-04-22T06:23:06.805Z,10.90
2023-04-22T06:25:36.623Z,11.10
2023-04-22T06:28:03.818Z,11.10
2023-04-22T06:30:34.177Z,11.40
2023-04-22T06:33:04.258Z,11.50
2023-04-22T06:35:36.289Z,11.80
2023-04-22T06:38:03.222Z,11.90
2023-04-22T06:40:36.624Z,12.10
2023-04-22T06:43:13.184Z,12.20
2023-04-22T06:46:02.906Z,12.30
2023-04-22T06:48:58.802Z,12.40
2023-04-22T06:51:48.280Z,12.40
2023-04-22T06:54:23.262Z,12.30
2023-04-22T06:56:50.997Z,12.40
2023-04-22T06:59:18.086Z,11.90
2023-04-22T07:01:46.871Z,11.60
2023-04-22T07:04:13.770Z,11.60
2023-04-22T07:06:40.962Z,11.70
2023-04-22T07:09:08.061Z,12.00
2023-04-22T07:11:35.000Z,12.20
2023-04-22T07:14:05.719Z,12.30
2023-04-22T07:16:32.618Z,12.50
2023-04-22T07:18:59.527Z,12.40
2023-04-22T07:21:26.375Z,12.70
2023-04-22T07:23:53.231Z,13.00
2023-04-22T07:26:20.073Z,13.10
2023-04-22T07:28:46.933Z,13.00
2023-04-22T07:31:13.769Z,13.00
2023-04-22T07:33:40.578Z,13.20
2023-04-22T07:36:09.490Z,13.40
2023-04-22T07:38:36.387Z,13.40
2023-04-22T07:41:03.159Z,13.50
2023-04-22T07:43:30.076Z,13.70
2023-04-22T07:45:57.314Z,14.00
2023-04-22T07:48:24.112Z,14.10
2023-04-22T07:50:50.976Z,14.10
2023-04-22T07:53:20.776Z,14.10
2023-04-22T07:55:49.530Z,14.20
2023-04-22T07:58:16.805Z,14.10
2023-04-22T08:00:43.723Z,14.10
2023-04-22T08:03:13.242Z,14.30
2023-04-22T08:05:40.319Z,14.60
2023-04-22T08:08:07.315Z,14.70
2023-04-22T08:10:34.130Z,14.90
2023-04-22T08:13:01.181Z,15.00
2023-04-22T08:15:30.669Z,15.20
2023-04-22T08:17:59.717Z,15.20
2023-04-22T08:20:26.808Z,15.00
2023-04-22T08:22:58.295Z,14.80
2023-04-22T08:25:25.210Z,14.90
2023-04-22T08:27:52.047Z,14.90
2023-04-22T08:30:21.185Z,15.00
2023-04-22T08:32:48.143Z,14.90
2023-04-22T08:35:15.047Z,15.10
2023-04-22T08:37:41.991Z,15.30
2023-04-22T08:40:09.207Z,15.20
2023-04-22T08:42:36.865Z,15.30
2023-04-22T08:45:04.440Z,15.30
2023-04-22T08:47:33.075Z,15.40
2023-04-22T08:50:01.846Z,15.50
2023-04-22T08:52:30.078Z,15.50
2023-04-22T08:55:02.092Z,15.40
2023-04-22T08:57:29.531Z,15.60
2023-04-22T08:59:56.409Z,15.90
2023-04-22T09:02:24.217Z,16.20
2023-04-22T09:04:56.381Z,16.30
2023-04-22T09:07:30.970Z,16.60
2023-04-22T09:09:58.279Z,16.80
2023-04-22T09:12:28.365Z,17.00
2023-04-22T09:14:55.584Z,17.10
2023-04-22T09:17:32.305Z,17.20
2023-04-22T09:20:03.289Z,17.10
2023-04-22T09:22:37.865Z,17.20
2023-04-22T09:25:05.194Z,17.20
2023-04-22T09:27:31.996Z,17.30
2023-04-22T09:29:58.797Z,17.40
2023-04-22T09:32:28.591Z,17.60
2023-04-22T09:34:58.382Z,17.80
2023-04-22T09:37:28.978Z,17.70
2023-04-22T09:40:04.341Z,17.90
2023-04-22T09:42:47.470Z,18.20
2023-04-22T09:45:14.330Z,18.50
2023-04-22T09:47:41.350Z,18.70
2023-04-22T09:50:11.343Z,18.80
2023-04-22T09:52:38.362Z,19.00
2023-04-22T09:55:09.037Z,19.10
2023-04-22T09:57:39.255Z,19.20
2023-04-22T10:00:10.485Z,19.30
2023-04-22T10:02:38.659Z,19.20
2023-04-22T10:05:05.710Z,19.00
2023-04-22T10:07:32.692Z,19.00
2023-04-22T10:09:59.599Z,19.10
2023-04-22T10:12:35.349Z,18.90
2023-04-22T10:15:06.688Z,18.90
2023-04-22T10:17:39.644Z,19.30
2023-04-22T10:20:13.821Z,19.40
2023-04-22T10:22:42.867Z,19.50
2023-04-22T10:25:14.034Z,19.60
2023-04-22T10:27:52.357Z,19.80
2023-04-22T10:30:29.284Z,20.10
2023-04-22T10:32:56.388Z,20.40
2023-04-22T10:35:27.291Z,20.60
2023-04-22T10:37:54.658Z,20.80
2023-04-22T10:40:22.838Z,21.10
2023-04-22T10:43:15.524Z,21.30
2023-04-22T10:45:45.945Z,21.50
2023-04-22T10:48:13.129Z,21.80
2023-04-22T10:50:39.984Z,22.00
2023-04-22T10:53:26.040Z,22.20
2023-04-22T10:55:53.402Z,22.50
2023-04-22T10:58:21.341Z,22.60
2023-04-22T11:00:54.375Z,22.60
2023-04-22T11:03:26.035Z,22.40
2023-04-22T11:06:15.598Z,22.30
2023-04-22T11:08:50.342Z,22.30
2023-04-22T11:11:20.541Z,22.20
2023-04-22T11:13:51.030Z,22.10
2023-04-22T11:16:22.355Z,22.20
2023-04-22T11:18:51.976Z,22.30
2023-04-22T11:21:19.773Z,22.10
2023-04-22T11:23:50.801Z,22.20
2023-04-22T11:26:32.281Z,22.20
2023-04-22T11:29:00.575Z,22.20
2023-04-22T11:31:27.603Z,22.20
2023-04-22T11:33:58.473Z,22.20
2023-04-22T11:36:25.626Z,22.20
2023-04-22T11:38:56.599Z,22.20
2023-04-22T11:41:23.850Z,22.20
2023-04-22T11:43:52.599Z,22.10
2023-04-22T11:46:38.492Z,22.00
2023-04-22T11:49:14.961Z,22.00
2023-04-22T11:51:57.754Z,21.90
2023-04-22T11:54:37.055Z,21.80
2023-04-22T11:57:05.773Z,22.00
2023-04-22T11:59:35.578Z,22.20
2023-04-22T12:02:05.366Z,22.50
2023-04-22T12:04:39.813Z,22.50
2023-04-22T12:07:07.041Z,22.60
2023-04-22T12:09:34.509Z,22.70
2023-04-22T12:12:03.744Z,22.80
2023-04-22T12:14:37.691Z,23.00
2023-04-22T12:17:08.134Z,23.00
2023-04-22T12:19:35.821Z,23.30
2023-04-22T12:22:03.394Z,23.40
2023-04-22T12:24:32.713Z,23.60
2023-04-22T12:27:03.495Z,23.40
2023-04-22T12:29:33.813Z,23.40
2023-04-22T12:32:01.095Z,23.30
2023-04-22T12:34:30.570Z,23.30
2023-04-22T12:36:57.503Z,23.60
2023-04-22T12:39:24.414Z,23.80
2023-04-22T12:41:51.434Z,23.70
2023-04-22T12:44:21.386Z,23.40
2023-04-22T12:46:51.984Z,23.20
2023-04-22T12:49:19.066Z,23.30
2023-04-22T12:51:46.013Z,23.50
2023-04-22T12:54:12.993Z,23.60
2023-04-22T12:56:42.067Z,23.70
2023-04-22T12:59:11.908Z,23.60
2023-04-22T13:01:41.669Z,23.60
2023-04-22T13:04:08.601Z,23.40
2023-04-22T13:06:36.383Z,23.60
2023-04-22T13:09:03.686Z,23.50
2023-04-22T13:11:30.623Z,23.40
2023-04-22T13:13:58.046Z,23.60
2023-04-22T13:16:24.950Z,23.80
2023-04-22T13:18:51.895Z,24.10
2023-04-22T13:21:18.781Z,24.40
2023-04-22T13:23:48.308Z,24.60
2023-04-22T13:26:15.857Z,24.80
2023-04-22T13:28:43.544Z,25.10
2023-04-22T13:31:10.635Z,25.00
2023-04-22T13:33:39.926Z,25.50
2023-04-22T13:36:06.876Z,25.70
2023-04-22T13:38:33.774Z,25.20
2023-04-22T13:41:01.989Z,25.10
2023-04-22T13:43:35.568Z,24.80
2023-04-22T13:46:02.652Z,24.40
2023-04-22T13:48:30.165Z,24.10
2023-04-22T13:50:57.115Z,23.80
2023-04-22T13:53:29.076Z,23.30
2023-04-22T13:55:55.930Z,23.10
2023-04-22T13:58:22.844Z,22.90
2023-04-22T14:00:49.929Z,22.90
2023-04-22T14:03:17.201Z,22.90
2023-04-22T14:05:44.537Z,22.70
2023-04-22T14:08:12.035Z,22.70
2023-04-22T14:10:38.912Z,22.90
2023-04-22T14:13:06.023Z,22.80
2023-04-22T14:15:33.098Z,22.60
2023-04-22T14:18:01.379Z,22.30
2023-04-22T14:20:28.330Z,22.20
2023-04-22T14:22:57.445Z,22.00
2023-04-22T14:25:24.510Z,21.80
2023-04-22T14:27:54.079Z,21.70
2023-04-22T14:30:21.876Z,21.60
2023-04-22T14:32:49.611Z,21.50
2023-04-22T14:35:16.697Z,21.60
2023-04-22T14:37:45.157Z,21.80
2023-04-22T14:40:12.608Z,21.80
2023-04-22T14:42:39.897Z,21.80
2023-04-22T14:45:09.302Z,21.70
2023-04-22T14:47:36.239Z,21.70
2023-04-22T14:50:03.366Z,21.60
2023-04-22T14:52:34.181Z,21.40
2023-04-22T14:55:15.444Z,21.40
2023-04-22T14:57:52.615Z,21.30
2023-04-22T15:00:21.038Z,21.20
2023-04-22T15:02:48.323Z,21.20
2023-04-22T15:05:15.899Z,21.30
2023-04-22T15:07:43.797Z,21.40
2023-04-22T15:10:10.899Z,21.50
2023-04-22T15:12:37.797Z,21.50
2023-04-22T15:15:07.330Z,21.70
2023-04-22T15:17:35.020Z,21.90
2023-04-22T15:20:06.107Z,22.10
2023-04-22T15:22:34.251Z,22.00
2023-04-22T15:25:01.456Z,21.90
2023-04-22T15:27:28.346Z,21.70
2023-04-22T15:29:57.742Z,21.50
2023-04-22T15:32:24.576Z,21.70
2023-04-22T15:34:51.468Z,21.60
2023-04-22T15:37:20.948Z,21.80
2023-04-22T15:39:47.811Z,21.70
2023-04-22T15:42:14.671Z,22.00
2023-04-22T15:44:42.622Z,22.00
2023-04-22T15:47:12.202Z,21.90
2023-04-22T15:49:39.396Z,21.70
2023-04-22T15:52:09.278Z,21.60
2023-04-22T15:54:38.586Z,21.40
2023-04-22T15:57:10.851Z,21.30
2023-04-22T15:59:37.984Z,21.10
2023-04-22T16:02:05.055Z,21.00
2023-04-22T16:04:32.146Z,20.80
2023-04-22T16:06:59.380Z,20.80
2023-04-22T16:09:26.421Z,20.60
2023-04-22T16:11:53.683Z,20.50
2023-04-22T16:14:23.121Z,20.50
2023-04-22T16:16:50.184Z,20.50
2023-04-22T16:19:16.962Z,20.50
2023-04-22T16:21:46.497Z,20.50
2023-04-22T16:24:14.661Z,20.70
2023-04-22T16:26:41.585Z,21.00
2023-04-22T16:29:08.498Z,21.20
2023-04-22T16:31:35.321Z,21.20
2023-04-22T16:34:02.187Z,21.10
2023-04-22T16:36:29.137Z,21.00
2023-04-22T16:38:56.530Z,20.90
2023-04-22T16:41:23.373Z,20.60
2023-04-22T16:43:50.656Z,20.40
2023-04-22T16:46:17.599Z,20.20
2023-04-22T16:48:44.413Z,20.00
2023-04-22T16:51:11.369Z,19.80
2023-04-22T16:53:38.206Z,19.60
2023-04-22T16:56:05.337Z,19.50
2023-04-22T16:58:32.090Z,19.40
2023-04-22T17:00:58.934Z,19.30
2023-04-22T17:03:26.141Z,19.20
2023-04-22T17:05:55.590Z,19.10
2023-04-22T17:08:22.427Z,19.00
2023-04-22T17:10:49.232Z,18.90
2023-04-22T17:13:16.163Z,18.90
2023-04-22T17:15:45.229Z,18.80
2023-04-22T17:18:16.266Z,18.80
2023-04-22T17:20:45.454Z,18.80
2023-04-22T17:23:12.222Z,18.70
2023-04-22T17:25:39.085Z,18.60
2023-04-22T17:28:06.242Z,18.60
2023-04-22T17:30:33.130Z,18.50
2023-04-22T17:32:59.967Z,18.40
2023-04-22T17:35:27.043Z,18.40
2023-04-22T17:37:53.958Z,18.30
2023-04-22T17:40:21.920Z,18.30
2023-04-22T17:42:48.895Z,18.30
2023-04-22T17:45:15.822Z,18.30
2023-04-22T17:47:45.141Z,18.20
2023-04-22T17:50:14.619Z,18.00
2023-04-22T17:52:41.596Z,17.90
2023-04-22T17:55:08.700Z,17.70
2023-04-22T17:57:36.596Z,17.60
2023-04-22T18:00:03.691Z,17.30
2023-04-22T18:02:34.478Z,17.20
2023-04-22T18:05:01.818Z,17.00
2023-04-22T18:07:28.668Z,16.90
2023-04-22T18:09:55.893Z,16.80
2023-04-22T18:12:27.656Z,16.70
2023-04-22T18:14:56.108Z,16.60
2023-04-22T18:17:23.017Z,16.50
2023-04-22T18:19:51.110Z,16.50
2023-04-22T18:22:18.582Z,16.40
2023-04-22T18:24:45.799Z,16.30
2023-04-22T18:27:12.737Z,16.30
2023-04-22T18:29:39.785Z,16.20
2023-04-22T18:32:06.725Z,16.20
2023-04-22T18:34:33.739Z,16.10
2023-04-22T18:37:00.535Z,16.10
2023-04-22T18:39:27.410Z,16.10
2023-04-22T18:42:19.267Z,16.00
2023-04-22T18:44:49.118Z,15.90
2023-04-22T18:47:18.494Z,15.90
2023-04-22T18:49:48.060Z,15.90
2023-04-22T18:52:16.311Z,15.80
2023-04-22T18:54:43.544Z,15.70
2023-04-22T18:57:11.067Z,15.70
2023-04-22T18:59:38.066Z,15.60
2023-04-22T19:02:05.532Z,15.60
2023-04-22T19:04:35.079Z,15.50
2023-04-22T19:07:02.178Z,15.40
2023-04-22T19:09:31.843Z,15.30
2023-04-22T19:12:04.407Z,15.30
2023-04-22T19:14:31.478Z,15.30
2023-04-22T19:16:58.398Z,15.20
2023-04-22T19:19:25.799Z,15.20
2023-04-22T19:21:52.626Z,15.10
2023-04-22T19:24:19.542Z,15.10
2023-04-22T19:26:47.218Z,15.00
2023-04-22T19:29:16.218Z,15.00
2023-04-22T19:31:49.832Z,15.00
2023-04-22T19:34:22.775Z,14.90
2023-04-22T19:36:51.001Z,14.90
2023-04-22T19:39:18.262Z,14.80
2023-04-22T19:41:45.232Z,14.80
2023-04-22T19:44:12.318Z,14.80
2023-04-22T19:46:39.317Z,14.70
2023-04-22T19:49:06.675Z,14.70
2023-04-22T19:51:34.453Z,14.70
2023-04-22T19:54:01.886Z,14.70
2023-04-22T19:56:28.829Z,14.70
2023-04-22T19:58:55.977Z,14.60
2023-04-22T20:01:22.943Z,14.60
2023-04-22T20:03:50.748Z,14.60
2023-04-22T20:06:18.371Z,14.50
2023-04-22T20:08:45.591Z,14.50
2023-04-22T20:11:12.418Z,14.50
2023-04-22T20:13:42.405Z,14.50
2023-04-22T20:16:09.632Z,14.40
2023-04-22T20:18:36.647Z,14.40
2023-04-22T20:21:08.208Z,14.40
2023-04-22T20:23:35.293Z,14.30
2023-04-22T20:26:02.828Z,14.30
2023-04-22T20:28:45.888Z,14.20
2023-04-22T20:31:13.324Z,14.20
2023-04-22T20:33:42.900Z,14.20
2023-04-22T20:36:09.969Z,14.10
2023-04-22T20:38:37.920Z,14.10
2023-04-22T20:41:06.125Z,14.00
2023-04-22T20:43:33.372Z,14.00
2023-04-22T20:46:00.164Z,13.90
2023-04-22T20:48:28.052Z,13.80
2023-04-22T20:50:55.694Z,13.80
2023-04-22T20:53:22.880Z,13.80
2023-04-22T20:55:50.364Z,13.80
2023-04-22T20:58:17.274Z,13.70
2023-04-22T21:00:44.059Z,13.70
2023-04-22T21:03:13.503Z,13.70
2023-04-22T21:05:42.560Z,13.70
2023-04-22T21:08:24.659Z,13.60
2023-04-22T21:10:52.859Z,13.60
2023-04-22T21:13:22.638Z,13.60
2023-04-22T21:15:56.626Z,13.50
2023-04-22T21:18:24.717Z,13.60
2023-04-22T21:20:56.198Z,13.60
2023-04-22T21:23:23.811Z,13.50
2023-04-22T21:25:53.082Z,13.50
2023-04-22T21:28:23.858Z,13.40
2023-04-22T21:30:50.927Z,13.40
2023-04-22T21:33:18.367Z,13.30
2023-04-22T21:35:47.464Z,13.30
2023-04-22T21:38:16.663Z,13.30
2023-04-22T21:40:43.737Z,13.20
2023-04-22T21:43:12.673Z,13.10
2023-04-22T21:45:39.720Z,13.10
2023-04-22T21:48:08.988Z,13.10
2023-04-22T21:50:35.965Z,13.10
2023-04-22T21:53:05.508Z,13.00
2023-04-22T21:55:32.395Z,13.00
2023-04-22T21:58:01.598Z,13.00
2023-04-22T22:00:31.706Z,12.90
2023-04-22T22:02:58.795Z,12.90
2023-04-22T22:05:25.920Z,12.90
2023-04-22T22:07:55.465Z,12.90
2023-04-22T22:10:22.800Z,12.90
2023-04-22T22:12:49.926Z,12.90
2023-04-22T22:15:17.251Z,12.90
2023-04-22T22:17:44.625Z,12.90
2023-04-22T22:20:12.967Z,12.80
2023-04-22T22:22:40.655Z,12.80
2023-04-22T22:25:10.430Z,12.80
2023-04-22T22:27:40.842Z,12.80
2023-04-22T22:30:08.186Z,12.70
2023-04-22T22:32:35.660Z,12.70
2023-04-22T22:35:02.883Z,12.70
2023-04-22T22:37:32.246Z,12.60
2023-04-22T22:39:59.156Z,12.50
2023-04-22T22:42:25.968Z,12.50
2023-04-22T22:44:52.778Z,12.50
2023-04-22T22:47:19.584Z,12.40
2023-04-22T22:49:46.397Z,12.40
2023-04-22T22:52:13.259Z,12.40
2023-04-22T22:54:41.119Z,12.40
2023-04-22T22:57:08.393Z,12.40
2023-04-22T22:59:36.113Z,12.40
2023-04-22T23:02:03.261Z,12.50
2023-04-22T23:04:30.490Z,12.60
2023-04-22T23:06:57.465Z,12.60
2023-04-22T23:09:24.369Z,12.60
2023-04-22T23:11:55.457Z,12.60
2023-04-22T23:14:22.698Z,12.70
2023-04-22T23:16:51.638Z,12.70
2023-04-22T23:19:21.032Z,12.70
2023-04-22T23:21:50.229Z,12.80
2023-04-22T23:24:17.310Z,12.80
2023-04-22T23:26:44.266Z,12.90
2023-04-22T23:29:13.481Z,12.90
2023-04-22T23:31:41.413Z,12.90
2023-04-22T23:34:10.675Z,12.90
2023-04-22T23:36:37.574Z,12.90
2023-04-22T23:39:08.133Z,12.80
2023-04-22T23:41:35.098Z,12.80
2023-04-22T23:44:01.973Z,12.80
2023-04-22T23:46:28.824Z,12.80
2023-04-22T23:48:55.642Z,12.70
2023-04-22T23:51:22.528Z,12.60
2023-04-22T23:53:51.809Z,12.60
2023-04-22T23:56:21.086Z,12.60
2023-04-22T23:58:51.199Z,12.60
